createdAt,value
2017-09-10T00:00:22.511Z,15.94
2017-09-10T00:01:03.069Z,15.77
2017-09-10T00:01:43.642Z,15.8
2017-09-10T00:02:24.205Z,15.88
2017-09-10T00:03:04.818Z,15.86
2017-09-10T00:03:45.385Z,15.76
2017-09-10T00:04:26.010Z,15.84
2017-09-10T00:05:06.613Z,15.83
2017-09-10T00:05:47.195Z,15.82
2017-09-10T00:06:27.757Z,15.8
2017-09-10T00:07:08.325Z,15.82
2017-09-10T00:07:48.911Z,15.83
2017-09-10T00:08:29.454Z,15.83
2017-09-10T00:09:10.040Z,15.86
2017-09-10T00:09:50.601Z,15.84
2017-09-10T00:10:31.165Z,15.79
2017-09-10T00:11:11.738Z,15.83
2017-09-10T00:11:52.317Z,15.83
2017-09-10T00:12:32.893Z,15.77
2017-09-10T00:13:13.451Z,15.88
2017-09-10T00:13:54.034Z,15.84
2017-09-10T00:14:34.738Z,15.86
2017-09-10T00:15:15.297Z,15.76
2017-09-10T00:15:55.872Z,15.8
2017-09-10T00:16:36.474Z,15.79
2017-09-10T00:17:17.034Z,15.76
2017-09-10T00:17:57.598Z,15.79
2017-09-10T00:18:38.157Z,15.86
2017-09-10T00:19:18.736Z,15.84
2017-09-10T00:20:02.003Z,15.79
2017-09-10T00:20:42.567Z,15.84
2017-09-10T00:21:23.129Z,15.84
2017-09-10T00:22:03.721Z,15.84
2017-09-10T00:22:44.287Z,15.84
2017-09-10T00:23:24.870Z,15.9
2017-09-10T00:24:05.422Z,15.9
2017-09-10T00:24:45.987Z,15.79
2017-09-10T00:25:26.539Z,15.84
2017-09-10T00:26:07.107Z,15.84
2017-09-10T00:26:47.671Z,15.77
2017-09-10T00:27:28.222Z,15.76
2017-09-10T00:28:08.776Z,15.8
2017-09-10T00:28:49.337Z,15.84
2017-09-10T00:29:29.900Z,15.82
2017-09-10T00:30:10.468Z,15.84
2017-09-10T00:30:51.030Z,15.82
2017-09-10T00:31:31.596Z,15.73
2017-09-10T00:32:12.174Z,15.84
2017-09-10T00:32:52.736Z,15.79
2017-09-10T00:33:33.305Z,15.84
2017-09-10T00:34:13.860Z,15.79
2017-09-10T00:34:54.423Z,15.82
2017-09-10T00:35:34.985Z,15.83
2017-09-10T00:36:15.541Z,15.82
2017-09-10T00:36:56.104Z,15.75
2017-09-10T00:37:36.665Z,15.73
2017-09-10T00:38:17.236Z,15.75
2017-09-10T00:38:57.802Z,15.76
2017-09-10T00:39:38.377Z,15.76
2017-09-10T00:40:18.929Z,15.77
2017-09-10T00:40:59.519Z,15.75
2017-09-10T00:41:40.110Z,15.76
2017-09-10T00:42:20.694Z,15.68
2017-09-10T00:43:01.268Z,15.72
2017-09-10T00:43:41.847Z,15.72
2017-09-10T00:44:22.433Z,15.68
2017-09-10T00:45:02.996Z,15.67
2017-09-10T00:45:43.569Z,15.72
2017-09-10T00:46:24.136Z,15.73
2017-09-10T00:47:04.698Z,15.65
2017-09-10T00:47:45.260Z,15.67
2017-09-10T00:48:25.822Z,15.68
2017-09-10T00:49:06.392Z,15.67
2017-09-10T00:49:46.955Z,15.65
2017-09-10T00:50:27.517Z,15.7
2017-09-10T00:51:08.091Z,15.64
2017-09-10T00:51:48.652Z,15.72
2017-09-10T00:52:29.221Z,15.75
2017-09-10T00:53:09.775Z,15.73
2017-09-10T00:53:50.342Z,15.58
2017-09-10T00:54:30.900Z,15.72
2017-09-10T00:55:11.467Z,15.65
2017-09-10T00:55:52.054Z,15.65
2017-09-10T00:56:32.608Z,15.59
2017-09-10T00:57:13.199Z,15.64
2017-09-10T00:57:53.758Z,15.64
2017-09-10T00:58:34.333Z,15.67
2017-09-10T00:59:14.901Z,15.58
2017-09-10T00:59:55.465Z,15.72
2017-09-10T01:00:36.025Z,15.68
2017-09-10T01:01:16.599Z,15.67
2017-09-10T01:01:57.155Z,15.64
2017-09-10T01:02:37.717Z,15.64
2017-09-10T01:03:18.279Z,15.62
2017-09-10T01:03:58.840Z,15.58
2017-09-10T01:04:39.414Z,15.64
2017-09-10T01:05:19.978Z,15.75
2017-09-10T01:06:00.536Z,15.67
2017-09-10T01:06:41.197Z,15.61
2017-09-10T01:07:21.764Z,15.64
2017-09-10T01:08:02.326Z,15.61
2017-09-10T01:08:42.892Z,15.72
2017-09-10T01:09:23.452Z,15.59
2017-09-10T01:10:04.014Z,15.62
2017-09-10T01:10:44.580Z,15.65
2017-09-10T01:11:25.138Z,15.58
2017-09-10T01:12:05.701Z,15.65
2017-09-10T01:12:46.260Z,15.61
2017-09-10T01:13:26.816Z,15.61
2017-09-10T01:14:07.383Z,15.7
2017-09-10T01:14:47.943Z,15.65
2017-09-10T01:15:28.519Z,15.65
2017-09-10T01:16:09.082Z,15.68
2017-09-10T01:16:49.641Z,15.65
2017-09-10T01:17:30.197Z,15.62
2017-09-10T01:18:10.763Z,15.67
2017-09-10T01:18:51.319Z,15.62
2017-09-10T01:19:31.876Z,15.59
2017-09-10T01:20:12.437Z,15.65
2017-09-10T01:20:52.999Z,15.55
2017-09-10T01:21:33.566Z,15.68
2017-09-10T01:22:14.162Z,15.58
2017-09-10T01:22:54.722Z,15.57
2017-09-10T01:23:35.284Z,15.7
2017-09-10T01:24:15.865Z,15.62
2017-09-10T01:24:56.424Z,15.62
2017-09-10T01:25:36.981Z,15.58
2017-09-10T01:26:17.541Z,15.59
2017-09-10T01:26:58.100Z,15.61
2017-09-10T01:27:38.655Z,15.55
2017-09-10T01:28:19.502Z,15.64
2017-09-10T01:29:00.146Z,15.58
2017-09-10T01:29:40.760Z,15.58
2017-09-10T01:30:21.442Z,15.58
2017-09-10T01:31:02.108Z,15.57
2017-09-10T01:31:42.899Z,15.59
2017-09-10T01:32:23.493Z,15.58
2017-09-10T01:33:04.057Z,15.55
2017-09-10T01:33:44.614Z,15.59
2017-09-10T01:34:25.200Z,15.55
2017-09-10T01:35:05.878Z,15.58
2017-09-10T01:35:46.588Z,15.61
2017-09-10T01:36:27.200Z,15.59
2017-09-10T01:37:07.772Z,15.59
2017-09-10T01:37:48.328Z,15.62
2017-09-10T01:38:28.896Z,15.55
2017-09-10T01:39:09.456Z,15.61
2017-09-10T01:39:50.018Z,15.61
2017-09-10T01:40:30.590Z,15.58
2017-09-10T01:41:11.156Z,15.59
2017-09-10T01:41:51.723Z,15.59
2017-09-10T01:42:32.296Z,15.62
2017-09-10T01:43:12.859Z,15.61
2017-09-10T01:43:53.427Z,15.55
2017-09-10T01:44:34.005Z,15.55
2017-09-10T01:45:14.579Z,15.58
2017-09-10T01:45:55.138Z,15.58
2017-09-10T01:46:35.702Z,15.61
2017-09-10T01:47:16.266Z,15.59
2017-09-10T01:47:56.824Z,15.57
2017-09-10T01:48:37.380Z,15.59
2017-09-10T01:49:17.949Z,15.59
2017-09-10T01:49:58.527Z,15.59
2017-09-10T01:50:39.082Z,15.61
2017-09-10T01:51:19.657Z,15.62
2017-09-10T01:52:00.213Z,15.57
2017-09-10T01:52:40.778Z,15.57
2017-09-10T01:53:21.341Z,15.59
2017-09-10T01:54:01.907Z,15.59
2017-09-10T01:54:42.471Z,15.61
2017-09-10T01:55:23.035Z,15.55
2017-09-10T01:56:03.595Z,15.58
2017-09-10T01:56:44.163Z,15.58
2017-09-10T01:57:24.721Z,15.59
2017-09-10T01:58:05.314Z,15.59
2017-09-10T01:58:45.876Z,15.62
2017-09-10T01:59:26.432Z,15.61
2017-09-10T02:00:07.013Z,15.58
2017-09-10T02:00:47.583Z,15.59
2017-09-10T02:01:28.157Z,15.61
2017-09-10T02:02:08.725Z,15.58
2017-09-10T02:02:49.285Z,15.61
2017-09-10T02:03:29.846Z,15.61
2017-09-10T02:04:10.427Z,15.58
2017-09-10T02:04:50.996Z,15.57
2017-09-10T02:05:31.565Z,15.55
2017-09-10T02:06:12.135Z,15.58
2017-09-10T02:06:52.701Z,15.61
2017-09-10T02:07:33.271Z,15.58
2017-09-10T02:08:13.827Z,15.57
2017-09-10T02:08:54.403Z,15.57
2017-09-10T02:09:34.989Z,15.52
2017-09-10T02:10:15.581Z,15.54
2017-09-10T02:10:56.148Z,15.64
2017-09-10T02:11:36.712Z,15.59
2017-09-10T02:12:17.278Z,15.59
2017-09-10T02:12:57.844Z,15.55
2017-09-10T02:13:38.400Z,15.55
2017-09-10T02:14:18.962Z,15.55
2017-09-10T02:14:59.539Z,15.58
2017-09-10T02:15:40.113Z,15.57
2017-09-10T02:16:20.704Z,15.55
2017-09-10T02:17:01.256Z,15.57
2017-09-10T02:17:41.811Z,15.55
2017-09-10T02:18:22.384Z,15.59
2017-09-10T02:19:02.950Z,15.55
2017-09-10T02:19:43.535Z,15.55
2017-09-10T02:20:24.101Z,15.54
2017-09-10T02:21:04.658Z,15.52
2017-09-10T02:21:45.229Z,15.55
2017-09-10T02:22:25.780Z,15.54
2017-09-10T02:23:06.354Z,15.55
2017-09-10T02:23:46.916Z,15.54
2017-09-10T02:24:27.478Z,15.59
2017-09-10T02:25:08.038Z,15.61
2017-09-10T02:25:48.600Z,15.54
2017-09-10T02:26:29.194Z,15.55
2017-09-10T02:27:09.768Z,15.57
2017-09-10T02:27:50.333Z,15.54
2017-09-10T02:28:30.905Z,15.52
2017-09-10T02:29:11.475Z,15.57
2017-09-10T02:29:52.048Z,15.58
2017-09-10T02:30:32.620Z,15.52
2017-09-10T02:31:13.177Z,15.54
2017-09-10T02:31:53.744Z,15.52
2017-09-10T02:32:34.312Z,15.57
2017-09-10T02:33:14.878Z,15.58
2017-09-10T02:33:55.426Z,15.54
2017-09-10T02:34:36.008Z,15.52
2017-09-10T02:35:16.572Z,15.61
2017-09-10T02:35:57.134Z,15.55
2017-09-10T02:36:37.711Z,15.43
2017-09-10T02:37:18.285Z,15.52
2017-09-10T02:37:58.853Z,15.49
2017-09-10T02:38:39.426Z,15.49
2017-09-10T02:39:19.991Z,15.46
2017-09-10T02:40:00.554Z,15.52
2017-09-10T02:40:41.147Z,15.49
2017-09-10T02:41:21.715Z,15.46
2017-09-10T02:42:02.264Z,15.52
2017-09-10T02:42:42.834Z,15.47
2017-09-10T02:43:23.393Z,15.47
2017-09-10T02:44:03.962Z,15.46
2017-09-10T02:44:44.517Z,15.54
2017-09-10T02:45:25.085Z,15.51
2017-09-10T02:46:05.653Z,15.54
2017-09-10T02:46:46.211Z,15.46
2017-09-10T02:47:26.783Z,15.43
2017-09-10T02:48:07.346Z,15.49
2017-09-10T02:48:47.916Z,15.52
2017-09-10T02:49:28.484Z,15.51
2017-09-10T02:50:09.048Z,15.47
2017-09-10T02:50:49.613Z,15.49
2017-09-10T02:51:30.178Z,15.51
2017-09-10T02:52:10.738Z,15.54
2017-09-10T02:52:51.302Z,15.47
2017-09-10T02:53:31.864Z,15.46
2017-09-10T02:54:12.438Z,15.43
2017-09-10T02:54:53.008Z,15.47
2017-09-10T02:55:33.571Z,15.49
2017-09-10T02:56:14.133Z,15.51
2017-09-10T02:56:54.692Z,15.51
2017-09-10T02:57:35.255Z,15.46
2017-09-10T02:58:15.822Z,15.54
2017-09-10T02:58:56.388Z,15.49
2017-09-10T02:59:36.938Z,15.49
2017-09-10T03:00:17.507Z,15.52
2017-09-10T03:00:58.091Z,15.52
2017-09-10T03:01:38.647Z,15.43
2017-09-10T03:02:19.203Z,15.49
2017-09-10T03:02:59.776Z,15.51
2017-09-10T03:03:40.341Z,15.51
2017-09-10T03:04:20.909Z,15.51
2017-09-10T03:05:01.480Z,15.44
2017-09-10T03:05:42.043Z,15.54
2017-09-10T03:06:22.605Z,15.52
2017-09-10T03:07:03.168Z,15.44
2017-09-10T03:07:43.754Z,15.46
2017-09-10T03:08:24.316Z,15.51
2017-09-10T03:09:04.904Z,15.47
2017-09-10T03:09:45.456Z,15.35
2017-09-10T03:10:26.021Z,15.35
2017-09-10T03:11:06.600Z,15.44
2017-09-10T03:11:47.188Z,15.46
2017-09-10T03:12:27.760Z,15.35
2017-09-10T03:13:08.347Z,15.37
2017-09-10T03:13:48.919Z,15.52
2017-09-10T03:14:29.479Z,15.37
2017-09-10T03:15:10.036Z,15.51
2017-09-10T03:15:50.607Z,15.33
2017-09-10T03:16:31.162Z,15.47
2017-09-10T03:17:11.720Z,15.33
2017-09-10T03:17:52.354Z,15.47
2017-09-10T03:18:32.919Z,15.42
2017-09-10T03:19:13.482Z,15.37
2017-09-10T03:19:54.056Z,15.36
2017-09-10T03:20:34.622Z,15.43
2017-09-10T03:21:15.186Z,15.37
2017-09-10T03:21:55.758Z,15.39
2017-09-10T03:22:36.323Z,15.43
2017-09-10T03:23:16.897Z,15.37
2017-09-10T03:23:57.455Z,15.33
2017-09-10T03:24:38.013Z,15.35
2017-09-10T03:25:18.571Z,15.35
2017-09-10T03:25:59.145Z,15.36
2017-09-10T03:26:39.717Z,15.35
2017-09-10T03:27:20.276Z,15.37
2017-09-10T03:28:00.841Z,15.47
2017-09-10T03:28:41.403Z,15.35
2017-09-10T03:29:21.966Z,15.31
2017-09-10T03:30:02.524Z,15.29
2017-09-10T03:30:43.078Z,15.35
2017-09-10T03:31:23.644Z,15.4
2017-09-10T03:32:04.202Z,15.33
2017-09-10T03:32:44.775Z,15.29
2017-09-10T03:33:25.360Z,15.36
2017-09-10T03:34:05.911Z,15.44
2017-09-10T03:34:46.508Z,15.37
2017-09-10T03:35:27.068Z,15.33
2017-09-10T03:36:07.633Z,15.43
2017-09-10T03:36:48.213Z,15.43
2017-09-10T03:37:28.784Z,15.33
2017-09-10T03:38:09.367Z,15.37
2017-09-10T03:38:49.941Z,15.36
2017-09-10T03:39:30.516Z,15.33
2017-09-10T03:40:11.073Z,15.37
2017-09-10T03:40:51.641Z,15.39
2017-09-10T03:41:32.200Z,15.42
2017-09-10T03:42:12.759Z,15.36
2017-09-10T03:42:53.339Z,15.29
2017-09-10T03:43:33.900Z,15.29
2017-09-10T03:44:14.471Z,15.43
2017-09-10T03:44:55.037Z,15.39
2017-09-10T03:45:35.611Z,15.39
2017-09-10T03:46:16.167Z,15.42
2017-09-10T03:46:56.739Z,15.31
2017-09-10T03:47:37.296Z,15.39
2017-09-10T03:48:17.873Z,15.39
2017-09-10T03:48:58.436Z,15.36
2017-09-10T03:49:39.002Z,15.39
2017-09-10T03:50:19.560Z,15.29
2017-09-10T03:51:00.144Z,15.37
2017-09-10T03:51:40.709Z,15.4
2017-09-10T03:52:21.287Z,15.29
2017-09-10T03:53:01.851Z,15.39
2017-09-10T03:53:42.410Z,15.36
2017-09-10T03:54:22.975Z,15.39
2017-09-10T03:55:03.532Z,15.29
2017-09-10T03:55:44.095Z,15.37
2017-09-10T03:56:24.673Z,15.27
2017-09-10T03:57:05.235Z,15.25
2017-09-10T03:57:45.784Z,15.25
2017-09-10T03:58:26.359Z,15.36
2017-09-10T03:59:06.915Z,15.36
2017-09-10T03:59:47.483Z,15.29
2017-09-10T04:00:28.059Z,15.33
2017-09-10T04:01:08.638Z,15.29
2017-09-10T04:01:49.200Z,15.27
2017-09-10T04:02:29.766Z,15.25
2017-09-10T04:03:10.328Z,15.29
2017-09-10T04:03:50.882Z,15.29
2017-09-10T04:04:31.433Z,15.25
2017-09-10T04:05:12.010Z,15.25
2017-09-10T04:05:52.570Z,15.27
2017-09-10T04:06:33.134Z,15.28
2017-09-10T04:07:13.702Z,15.31
2017-09-10T04:07:54.261Z,15.29
2017-09-10T04:08:34.838Z,15.25
2017-09-10T04:09:15.400Z,15.24
2017-09-10T04:09:55.954Z,15.28
2017-09-10T04:10:36.518Z,15.27
2017-09-10T04:11:17.086Z,15.29
2017-09-10T04:11:57.642Z,15.28
2017-09-10T04:12:38.214Z,15.25
2017-09-10T04:13:18.781Z,15.29
2017-09-10T04:13:59.346Z,15.29
2017-09-10T04:14:39.909Z,15.33
2017-09-10T04:15:20.475Z,15.24
2017-09-10T04:16:01.036Z,15.25
2017-09-10T04:16:41.603Z,15.27
2017-09-10T04:17:22.171Z,15.28
2017-09-10T04:18:02.732Z,15.18
2017-09-10T04:18:43.285Z,15.27
2017-09-10T04:19:23.865Z,15.28
2017-09-10T04:20:04.423Z,15.29
2017-09-10T04:20:44.993Z,15.25
2017-09-10T04:21:25.557Z,15.33
2017-09-10T04:22:06.132Z,15.31
2017-09-10T04:22:46.694Z,15.33
2017-09-10T04:23:27.259Z,15.22
2017-09-10T04:24:07.826Z,15.28
2017-09-10T04:24:48.400Z,15.27
2017-09-10T04:25:28.966Z,15.28
2017-09-10T04:26:09.533Z,15.31
2017-09-10T04:26:50.090Z,15.25
2017-09-10T04:27:30.663Z,15.29
2017-09-10T04:28:11.243Z,15.27
2017-09-10T04:28:51.804Z,15.29
2017-09-10T04:29:32.355Z,15.33
2017-09-10T04:30:12.917Z,15.27
2017-09-10T04:30:53.479Z,15.35
2017-09-10T04:31:34.049Z,15.27
2017-09-10T04:32:14.639Z,15.28
2017-09-10T04:32:55.209Z,15.29
2017-09-10T04:33:35.768Z,15.29
2017-09-10T04:34:16.328Z,15.25
2017-09-10T04:34:56.890Z,15.36
2017-09-10T04:35:37.450Z,15.27
2017-09-10T04:36:18.053Z,15.24
2017-09-10T04:36:58.621Z,15.24
2017-09-10T04:37:39.190Z,15.24
2017-09-10T04:38:19.771Z,15.27
2017-09-10T04:39:00.335Z,15.21
2017-09-10T04:39:40.906Z,15.22
2017-09-10T04:40:21.471Z,15.21
2017-09-10T04:41:02.027Z,15.27
2017-09-10T04:41:42.593Z,15.15
2017-09-10T04:42:23.163Z,15.25
2017-09-10T04:43:03.723Z,15.28
2017-09-10T04:43:44.279Z,15.25
2017-09-10T04:44:24.855Z,15.28
2017-09-10T04:45:05.472Z,15.25
2017-09-10T04:45:46.042Z,15.31
2017-09-10T04:46:26.609Z,15.27
2017-09-10T04:47:07.172Z,15.29
2017-09-10T04:47:47.753Z,15.28
2017-09-10T04:48:28.317Z,15.25
2017-09-10T04:49:09.978Z,15.24
2017-09-10T04:49:50.545Z,15.25
2017-09-10T04:50:31.105Z,15.28
2017-09-10T04:51:11.672Z,15.27
2017-09-10T04:51:52.231Z,15.17
2017-09-10T04:52:32.789Z,15.31
2017-09-10T04:53:13.345Z,15.24
2017-09-10T04:53:53.906Z,15.25
2017-09-10T04:54:34.470Z,15.24
2017-09-10T04:55:15.055Z,15.24
2017-09-10T04:55:55.625Z,15.21
2017-09-10T04:56:36.212Z,15.29
2017-09-10T04:57:16.786Z,15.15
2017-09-10T04:57:57.370Z,15.15
2017-09-10T04:58:37.952Z,15.29
2017-09-10T04:59:18.510Z,15.21
2017-09-10T04:59:59.070Z,15.27
2017-09-10T05:00:39.624Z,15.21
2017-09-10T05:01:20.188Z,15.28
2017-09-10T05:02:00.778Z,15.29
2017-09-10T05:02:41.358Z,15.29
2017-09-10T05:03:21.932Z,15.22
2017-09-10T05:04:02.485Z,15.27
2017-09-10T05:04:43.062Z,15.24
2017-09-10T05:05:23.637Z,15.24
2017-09-10T05:06:04.196Z,15.19
2017-09-10T05:06:44.759Z,15.29
2017-09-10T05:07:25.367Z,15.28
2017-09-10T05:08:05.891Z,15.28
2017-09-10T05:08:46.453Z,15.29
2017-09-10T05:09:27.039Z,15.27
2017-09-10T05:10:07.602Z,15.27
2017-09-10T05:10:48.168Z,15.29
2017-09-10T05:11:28.738Z,15.29
2017-09-10T05:12:09.294Z,15.28
2017-09-10T05:12:49.860Z,15.24
2017-09-10T05:13:30.466Z,15.33
2017-09-10T05:14:11.032Z,15.29
2017-09-10T05:14:51.597Z,15.28
2017-09-10T05:15:32.158Z,15.24
2017-09-10T05:16:12.721Z,15.29
2017-09-10T05:16:53.297Z,15.28
2017-09-10T05:17:33.875Z,15.29
2017-09-10T05:18:14.431Z,15.39
2017-09-10T05:18:54.986Z,15.39
2017-09-10T05:19:35.544Z,15.4
2017-09-10T05:20:16.108Z,15.35
2017-09-10T05:20:56.678Z,15.39
2017-09-10T05:21:37.254Z,15.39
2017-09-10T05:22:17.811Z,15.35
2017-09-10T05:22:58.387Z,15.35
2017-09-10T05:23:38.941Z,15.31
2017-09-10T05:24:19.511Z,15.4
2017-09-10T05:25:00.069Z,15.36
2017-09-10T05:25:40.623Z,15.37
2017-09-10T05:26:21.187Z,15.42
2017-09-10T05:27:01.748Z,15.33
2017-09-10T05:27:42.308Z,15.42
2017-09-10T05:28:22.879Z,15.35
2017-09-10T05:29:03.449Z,15.36
2017-09-10T05:29:44.011Z,15.33
2017-09-10T05:30:24.574Z,15.35
2017-09-10T05:31:05.133Z,15.4
2017-09-10T05:31:45.691Z,15.35
2017-09-10T05:32:26.259Z,15.42
2017-09-10T05:33:06.829Z,15.35
2017-09-10T05:33:47.389Z,15.37
2017-09-10T05:34:27.944Z,15.35
2017-09-10T05:35:08.508Z,15.33
2017-09-10T05:35:49.070Z,15.31
2017-09-10T05:36:29.630Z,15.42
2017-09-10T05:37:10.196Z,15.39
2017-09-10T05:37:50.769Z,15.44
2017-09-10T05:38:31.335Z,15.35
2017-09-10T05:39:11.910Z,15.37
2017-09-10T05:39:52.465Z,15.36
2017-09-10T05:40:33.921Z,15.29
2017-09-10T05:41:14.497Z,15.44
2017-09-10T05:41:55.066Z,15.37
2017-09-10T05:42:35.657Z,15.4
2017-09-10T05:43:16.235Z,15.39
2017-09-10T05:43:56.821Z,15.31
2017-09-10T05:44:37.391Z,15.42
2017-09-10T05:45:17.959Z,15.36
2017-09-10T05:45:58.531Z,15.43
2017-09-10T05:46:39.099Z,15.39
2017-09-10T05:47:19.658Z,15.4
2017-09-10T05:48:00.211Z,15.35
2017-09-10T05:48:40.772Z,15.35
2017-09-10T05:49:21.325Z,15.52
2017-09-10T05:50:01.904Z,15.44
2017-09-10T05:50:42.463Z,15.35
2017-09-10T05:51:23.073Z,15.35
2017-09-10T05:52:03.638Z,15.39
2017-09-10T05:52:44.218Z,15.33
2017-09-10T05:53:24.792Z,15.33
2017-09-10T05:54:05.350Z,15.4
2017-09-10T05:54:45.915Z,15.43
2017-09-10T05:55:26.484Z,15.44
2017-09-10T05:56:07.065Z,15.46
2017-09-10T05:56:47.637Z,15.47
2017-09-10T05:57:28.195Z,15.49
2017-09-10T05:58:08.754Z,15.51
2017-09-10T05:58:49.326Z,15.51
2017-09-10T05:59:29.892Z,15.46
2017-09-10T06:00:10.477Z,15.46
2017-09-10T06:00:51.038Z,15.47
2017-09-10T06:01:31.617Z,15.54
2017-09-10T06:02:12.267Z,15.51
2017-09-10T06:02:52.848Z,15.47
2017-09-10T06:03:33.409Z,15.47
2017-09-10T06:04:13.974Z,15.44
2017-09-10T06:04:54.699Z,15.58
2017-09-10T06:05:35.261Z,15.51
2017-09-10T06:06:15.827Z,15.61
2017-09-10T06:06:56.395Z,15.58
2017-09-10T06:07:36.959Z,15.61
2017-09-10T06:08:17.519Z,15.59
2017-09-10T06:08:58.094Z,15.61
2017-09-10T06:09:38.649Z,15.57
2017-09-10T06:10:19.235Z,15.61
2017-09-10T06:10:59.811Z,15.62
2017-09-10T06:11:40.384Z,15.64
2017-09-10T06:12:20.947Z,15.65
2017-09-10T06:13:01.524Z,15.67
2017-09-10T06:13:42.087Z,15.73
2017-09-10T06:14:22.656Z,15.72
2017-09-10T06:15:03.212Z,15.76
2017-09-10T06:15:43.797Z,15.75
2017-09-10T06:16:24.380Z,15.82
2017-09-10T06:17:04.946Z,15.77
2017-09-10T06:17:45.520Z,15.83
2017-09-10T06:18:26.080Z,15.79
2017-09-10T06:19:06.649Z,15.8
2017-09-10T06:19:47.229Z,15.77
2017-09-10T06:20:27.800Z,15.73
2017-09-10T06:21:08.399Z,15.77
2017-09-10T06:21:48.970Z,15.82
2017-09-10T06:22:29.550Z,15.73
2017-09-10T06:23:10.108Z,15.76
2017-09-10T06:23:50.674Z,15.84
2017-09-10T06:24:31.238Z,15.73
2017-09-10T06:25:11.804Z,15.79
2017-09-10T06:25:52.363Z,15.8
2017-09-10T06:26:32.936Z,15.79
2017-09-10T06:27:13.494Z,15.73
2017-09-10T06:27:54.067Z,15.8
2017-09-10T06:28:34.637Z,15.9
2017-09-10T06:29:15.208Z,15.8
2017-09-10T06:29:55.774Z,15.77
2017-09-10T06:30:36.338Z,15.82
2017-09-10T06:31:16.900Z,15.82
2017-09-10T06:31:57.467Z,15.76
2017-09-10T06:32:38.024Z,15.8
2017-09-10T06:33:18.595Z,15.75
2017-09-10T06:33:59.170Z,15.8
2017-09-10T06:34:39.753Z,15.73
2017-09-10T06:35:20.329Z,15.82
2017-09-10T06:36:00.900Z,15.84
2017-09-10T06:36:41.470Z,15.82
2017-09-10T06:37:22.033Z,15.77
2017-09-10T06:38:02.607Z,15.84
2017-09-10T06:38:43.198Z,15.73
2017-09-10T06:39:23.758Z,15.86
2017-09-10T06:40:04.322Z,15.77
2017-09-10T06:40:44.887Z,15.86
2017-09-10T06:41:25.454Z,15.8
2017-09-10T06:42:06.016Z,15.73
2017-09-10T06:42:46.619Z,15.73
2017-09-10T06:43:27.151Z,15.84
2017-09-10T06:44:07.749Z,15.94
2017-09-10T06:44:48.343Z,15.98
2017-09-10T06:45:28.924Z,15.95
2017-09-10T06:46:09.485Z,15.91
2017-09-10T06:46:50.096Z,15.98
2017-09-10T06:47:30.663Z,15.98
2017-09-10T06:48:11.235Z,16.01
2017-09-10T06:48:51.811Z,15.94
2017-09-10T06:49:32.375Z,15.98
2017-09-10T06:50:12.963Z,16
2017-09-10T06:50:53.532Z,16.01
2017-09-10T06:51:34.099Z,16.02
2017-09-10T06:52:14.672Z,16.1
2017-09-10T06:52:55.248Z,16.12
2017-09-10T06:53:35.824Z,16.15
2017-09-10T06:54:16.375Z,16.15
2017-09-10T06:54:56.944Z,16.16
2017-09-10T06:55:37.504Z,16.23
2017-09-10T06:56:18.078Z,16.24
2017-09-10T06:56:58.657Z,16.23
2017-09-10T06:57:39.224Z,16.23
2017-09-10T06:58:19.834Z,16.31
2017-09-10T06:59:00.404Z,16.26
2017-09-10T06:59:40.972Z,16.32
2017-09-10T07:00:21.533Z,16.32
2017-09-10T07:01:02.117Z,16.46
2017-09-10T07:01:42.683Z,16.36
2017-09-10T07:02:23.254Z,16.39
2017-09-10T07:03:03.830Z,16.43
2017-09-10T07:03:44.438Z,16.49
2017-09-10T07:04:25.020Z,16.46
2017-09-10T07:05:05.580Z,16.58
2017-09-10T07:05:46.164Z,16.54
2017-09-10T07:06:26.740Z,16.54
2017-09-10T07:07:07.316Z,16.56
2017-09-10T07:07:47.885Z,16.58
2017-09-10T07:08:28.468Z,16.61
2017-09-10T07:09:09.046Z,16.65
2017-09-10T07:09:49.635Z,16.65
2017-09-10T07:10:30.210Z,16.66
2017-09-10T07:11:10.795Z,16.71
2017-09-10T07:11:51.357Z,16.71
2017-09-10T07:12:31.956Z,16.71
2017-09-10T07:13:12.518Z,16.71
2017-09-10T07:13:53.088Z,16.71
2017-09-10T07:14:33.676Z,16.72
2017-09-10T07:15:14.236Z,16.68
2017-09-10T07:15:54.839Z,16.69
2017-09-10T07:16:35.433Z,16.71
2017-09-10T07:17:16.009Z,16.66
2017-09-10T07:17:56.574Z,16.66
2017-09-10T07:18:37.150Z,16.78
2017-09-10T07:19:17.714Z,16.71
2017-09-10T07:19:58.270Z,16.71
2017-09-10T07:20:38.836Z,16.61
2017-09-10T07:21:19.400Z,16.68
2017-09-10T07:21:59.972Z,16.71
2017-09-10T07:22:40.572Z,16.76
2017-09-10T07:23:21.153Z,16.78
2017-09-10T07:24:01.731Z,16.68
2017-09-10T07:24:42.306Z,16.71
2017-09-10T07:25:22.891Z,16.74
2017-09-10T07:26:03.450Z,16.76
2017-09-10T07:26:44.006Z,16.83
2017-09-10T07:27:24.572Z,16.78
2017-09-10T07:28:05.135Z,16.84
2017-09-10T07:28:45.735Z,16.87
2017-09-10T07:29:26.323Z,16.89
2017-09-10T07:30:06.896Z,16.84
2017-09-10T07:30:47.466Z,16.84
2017-09-10T07:31:28.053Z,16.91
2017-09-10T07:32:08.611Z,16.94
2017-09-10T07:32:49.195Z,17.08
2017-09-10T07:33:29.802Z,17.09
2017-09-10T07:34:10.365Z,17.04
2017-09-10T07:34:50.926Z,17.12
2017-09-10T07:35:31.494Z,17.22
2017-09-10T07:36:12.054Z,17.16
2017-09-10T07:36:52.616Z,17.3
2017-09-10T07:37:33.223Z,17.36
2017-09-10T07:38:13.792Z,17.33
2017-09-10T07:38:54.356Z,17.36
2017-09-10T07:39:34.926Z,17.44
2017-09-10T07:40:15.499Z,17.46
2017-09-10T07:40:56.067Z,17.46
2017-09-10T07:41:36.639Z,17.49
2017-09-10T07:42:18.351Z,17.52
2017-09-10T07:42:58.923Z,17.52
2017-09-10T07:43:39.504Z,17.44
2017-09-10T07:44:20.072Z,17.44
2017-09-10T07:45:00.642Z,17.49
2017-09-10T07:45:41.240Z,17.46
2017-09-10T07:46:21.808Z,17.56
2017-09-10T07:47:02.399Z,17.59
2017-09-10T07:47:42.957Z,17.59
2017-09-10T07:48:23.555Z,17.6
2017-09-10T07:49:04.125Z,17.54
2017-09-10T07:49:44.695Z,17.56
2017-09-10T07:50:25.265Z,17.6
2017-09-10T07:51:05.823Z,17.59
2017-09-10T07:51:46.386Z,17.67
2017-09-10T07:52:26.955Z,17.59
2017-09-10T07:53:07.532Z,17.51
2017-09-10T07:53:48.094Z,17.64
2017-09-10T07:54:28.666Z,17.67
2017-09-10T07:55:10.503Z,17.56
2017-09-10T07:55:51.334Z,17.52
2017-09-10T07:56:31.910Z,17.7
2017-09-10T07:57:12.473Z,17.74
2017-09-10T07:57:53.054Z,17.76
2017-09-10T07:58:33.622Z,17.76
2017-09-10T07:59:14.181Z,17.72
2017-09-10T07:59:55.111Z,17.74
2017-09-10T08:00:40.689Z,17.71
2017-09-10T08:01:27.499Z,17.79
2017-09-10T08:02:14.055Z,17.71
2017-09-10T08:03:01.521Z,17.74
2017-09-10T08:03:44.434Z,17.68
2017-09-10T08:04:25.622Z,17.7
2017-09-10T08:05:07.816Z,17.65
2017-09-10T08:05:50.831Z,17.71
2017-09-10T08:06:32.192Z,17.78
2017-09-10T08:07:14.042Z,17.71
2017-09-10T08:07:56.315Z,17.79
2017-09-10T08:08:37.696Z,17.71
2017-09-10T08:09:18.827Z,17.76
2017-09-10T08:10:00.532Z,17.72
2017-09-10T08:10:41.655Z,17.74
2017-09-10T08:11:23.862Z,17.68
2017-09-10T08:13:19.416Z,17.71
2017-09-10T08:14:00.181Z,17.72
2017-09-10T08:14:42.663Z,17.7
2017-09-10T08:15:23.886Z,17.57
2017-09-10T08:16:07.249Z,17.68
2017-09-10T08:16:50.893Z,17.54
2017-09-10T08:17:34.865Z,17.41
2017-09-10T08:18:17.078Z,17.45
2017-09-10T08:18:58.987Z,17.46
2017-09-10T08:19:41.058Z,17.41
2017-09-10T08:20:22.166Z,17.38
2017-09-10T08:21:04.208Z,17.44
2017-09-10T08:21:45.831Z,17.36
2017-09-10T08:22:27.358Z,17.33
2017-09-10T08:23:09.088Z,17.42
2017-09-10T08:23:52.340Z,17.45
2017-09-10T08:24:36.371Z,17.52
2017-09-10T08:25:20.580Z,17.45
2017-09-10T08:26:04.097Z,17.52
2017-09-10T08:26:49.782Z,17.48
2017-09-10T08:27:33.869Z,17.59
2017-09-10T08:28:17.748Z,17.6
2017-09-10T08:29:01.045Z,17.76
2017-09-10T08:29:42.686Z,17.74
2017-09-10T08:30:23.243Z,17.82
2017-09-10T08:31:03.828Z,17.89
2017-09-10T08:31:44.419Z,17.92
2017-09-10T08:32:25.033Z,17.97
2017-09-10T08:33:05.620Z,18.03
2017-09-10T08:33:46.195Z,18.19
2017-09-10T08:34:26.760Z,18.26
2017-09-10T08:35:07.340Z,18.33
2017-09-10T08:35:49.755Z,18.47
2017-09-10T08:36:30.400Z,18.56
2017-09-10T08:37:14.345Z,18.66
2017-09-10T08:37:56.511Z,18.7
2017-09-10T08:38:37.090Z,18.81
2017-09-10T08:39:18.311Z,18.92
2017-09-10T08:39:59.455Z,18.99
2017-09-10T08:40:40.680Z,18.98
2017-09-10T08:41:21.757Z,19.04
2017-09-10T08:42:02.353Z,19.09
2017-09-10T08:42:42.945Z,19.12
2017-09-10T08:43:23.606Z,19.02
2017-09-10T08:44:05.682Z,19.07
2017-09-10T08:44:52.677Z,19.02
2017-09-10T08:45:39.576Z,19.08
2017-09-10T08:46:26.049Z,18.86